Yellow Mule RAWS (NWS)

Jump to table bottom
Date/Time Wind Direction Wind Speed knots Wind Gust knots RH % Accumulated Precip Inches Air Temp Fahrenheit
2021-10-21 09:04 S 7 16 80 9.87 31
2021-10-21 08:04 S 13 21 79 9.87 30
2021-10-21 07:04 S 9 11 95 9.87 28
2021-10-21 06:04 SSE 9 12 86 9.87 30
2021-10-21 05:04 SSE 8 22 79 9.87 31
2021-10-21 04:04 SSE 11 17 79 9.87 31
2021-10-21 03:04 ESE 3 7 92 9.87 28
2021-10-21 02:04 ESE 4 13 90 9.87 28
2021-10-21 01:04 SSE 11 16 84 9.87 30
2021-10-21 00:04 S 10 14 83 9.87 29
2021-10-20 23:04 SSE 7 10 84 9.87 28
2021-10-20 22:04 SSE 7 10 83 9.87 29
2021-10-20 21:04 SSE 7 10 82 9.87 30
2021-10-20 20:04 SSE 6 9 81 9.87 29
2021-10-20 19:04 SE 5 15 77 9.87 31
2021-10-20 18:04 SSE 10 16 69 9.87 34
2021-10-20 17:04 SSE 12 16 63 9.87 35
2021-10-20 16:04 SE 8 13 70 9.87 35
2021-10-20 15:04 SSE 10 15 60 9.87 37
2021-10-20 14:04 ESE 6 18 66 9.87 37
2021-10-20 13:04 SE 11 17 71 9.87 35
2021-10-20 12:04 SE 10 18 75 9.87 33
2021-10-20 11:04 SE 10 19 84 9.87 32
2021-10-20 10:04 SE 14 18 91 9.87 30
2021-10-20 09:04 SE 11 17 97 9.87 29
2021-10-20 08:04 SSE 7 12 99 9.87 27
2021-10-20 07:04 S 6 11 94 9.87 27
2021-10-20 06:04 S 7 11 91 9.87 27
2021-10-20 05:04 SSE 9 10 89 9.87 26
2021-10-20 04:04 S 6 9 83 9.87 25
2021-10-20 03:04 S 8 13 77 9.87 27
2021-10-20 02:04 S 9 14 71 9.87 29
2021-10-20 01:04 SSE 9 12 64 9.87 31
2021-10-20 00:04 SSE 6 8 67 9.87 30
2021-10-19 23:04 SE 3 5 66 9.87 30
2021-10-19 22:04 SE 3 3 66 9.87 31
2021-10-19 21:04 S 2 3 68 9.87 31
2021-10-19 20:04 0 3 67 9.87 30
2021-10-19 19:04 NNW 2 3 70 9.87 30
2021-10-19 18:04 N 2 7 60 9.87 34
2021-10-19 17:04 NNE 3 10 50 9.87 40
2021-10-19 16:04 NNE 3 10 50 9.87 39
2021-10-19 15:04 N 6 10 50 9.87 39
2021-10-19 14:04 NE 6 12 50 9.87 41
2021-10-19 13:04 NNE 5 13 55 9.87 37
2021-10-19 12:04 NNE 6 10 59 9.87 33
2021-10-19 11:04 NNE 5 10 67 9.87 31
2021-10-19 10:04 N 5 12 71 9.87 30
2021-10-19 09:04 NNE 6 13 76 9.87 27
2021-10-19 08:04 N 8 11 84 9.87 24